Time;durP1;ratioP1;P1;durP2;ratioP2;P2;SDS_P1;SDS_P2;PMS_P1;PMS_P2;Temp;Humidity;BMP_temperature;BMP_pressure;BME280_temperature;BME280_humidity;BME280_pressure;Samples;Min_cycle;Max_cycle;Signal;HPM_P1;HPM_P2
2021/07/03 00:00:17;;;;;;;;;;;11.90;99.90;;;;;;5053329;28;19955;-68
2021/07/03 00:02:43;;;;;;;;;;;11.90;99.90;;;;;;5053361;28;19909;-68
2021/07/03 00:05:10;;;;;;;;;;;11.90;99.90;;;;;;5048830;28;20267;-68
2021/07/03 00:07:37;;;;;;;;;;;12.00;99.90;;;;;;5052829;28;19916;-68
2021/07/03 00:10:04;;;;;;;;;;;12.10;99.90;;;;;;5053029;28;19909;-68
2021/07/03 00:12:31;;;;;;;;;;;12.10;99.90;;;;;;5052259;28;19955;-68
2021/07/03 00:14:58;;;;;;;;;;;12.20;99.90;;;;;;5058763;28;20290;-68
2021/07/03 00:17:24;;;;;;;;;;;12.30;99.90;;;;;;5072753;28;19909;-68
2021/07/03 00:19:51;;;;;;;;;;;12.40;99.90;;;;;;5072222;28;19912;-69
2021/07/03 00:22:18;;;;;;;;;;;12.50;99.90;;;;;;5071302;28;20290;-68
2021/07/03 00:24:45;;;;;;;;;;;12.60;99.90;;;;;;5072447;28;20644;-68
2021/07/03 00:27:12;;;;;;;;;;;12.60;99.90;;;;;;5072432;28;20367;-69
2021/07/03 00:29:38;;;;;;;;;;;12.70;99.90;;;;;;5072254;28;19952;-69
2021/07/03 00:32:05;;;;;;;;;;;12.80;99.90;;;;;;5053671;28;19912;-69
2021/07/03 00:34:32;;;;;;;;;;;12.80;99.90;;;;;;5048270;28;19920;-68
2021/07/03 00:36:58;;;;;;;;;;;12.90;99.90;;;;;;5052103;28;20880;-69
2021/07/03 00:39:25;;;;;;;;;;;13.00;99.90;;;;;;5059136;28;19956;-68
2021/07/03 00:41:52;;;;;;;;;;;13.00;99.90;;;;;;5067424;28;20024;-69
2021/07/03 00:44:26;;;;;;;;;;;13.10;99.90;;;;;;5071028;28;20393;-68
2021/07/03 00:46:53;;;;;;;;;;;13.20;99.90;;;;;;5069673;28;19908;-68
2021/07/03 00:49:20;;;;;;;;;;;13.30;99.90;;;;;;5070814;28;20317;-68
2021/07/03 00:51:46;;;;;;;;;;;13.30;99.90;;;;;;5067986;28;19946;-68
2021/07/03 00:54:13;;;;;;;;;;;13.40;99.90;;;;;;5067982;28;19958;-68
2021/07/03 00:56:40;;;;;;;;;;;13.60;99.90;;;;;;5068262;28;19909;-68
2021/07/03 00:59:06;;;;;;;;;;;13.80;99.90;;;;;;5069890;28;19909;-66
2021/07/03 01:01:33;;;;;;;;;;;13.90;99.90;;;;;;5071272;28;19915;-67
2021/07/03 01:03:59;;;;;;;;;;;13.90;99.90;;;;;;5071373;28;19913;-67
2021/07/03 01:06:26;;;;;;;;;;;14.10;99.90;;;;;;5072268;28;19916;-67
2021/07/03 01:08:53;;;;;;;;;;;14.30;99.90;;;;;;5073349;28;19909;-68
2021/07/03 01:11:26;;;;;;;;;;;14.50;99.90;;;;;;5074199;28;19951;-68
2021/07/03 01:13:54;;;;;;;;;;;14.70;99.90;;;;;;5074991;28;19930;-68
2021/07/03 01:16:20;;;;;;;;;;;14.90;99.90;;;;;;5075506;28;20367;-68
2021/07/03 01:18:47;;;;;;;;;;;15.20;99.90;;;;;;5075394;28;19995;-67
2021/07/03 01:21:15;;;;;;;;;;;15.30;99.90;;;;;;5075338;28;19948;-68
2021/07/03 01:23:42;;;;;;;;;;;15.50;99.90;;;;;;5075008;28;19955;-68
2021/07/03 01:26:08;;;;;;;;;;;15.40;99.90;;;;;;5075300;28;20355;-67
2021/07/03 01:28:35;;;;;;;;;;;15.30;99.90;;;;;;5075363;28;19912;-67
2021/07/03 01:31:02;;;;;;;;;;;15.20;99.90;;;;;;5075096;28;19915;-68
2021/07/03 01:33:28;;;;;;;;;;;15.10;99.90;;;;;;5074890;28;20329;-67
2021/07/03 01:35:55;;;;;;;;;;;15.00;99.90;;;;;;5075210;28;19912;-68
2021/07/03 01:38:23;;;;;;;;;;;15.00;99.90;;;;;;5075205;28;19962;-67
2021/07/03 01:40:51;;;;;;;;;;;15.00;99.90;;;;;;5075297;28;19916;-68
2021/07/03 01:43:22;;;;;;;;;;;15.00;99.90;;;;;;5071287;28;19912;-68
2021/07/03 01:45:49;;;;;;;;;;;15.00;99.90;;;;;;5069439;28;19920;-68
2021/07/03 01:48:23;;;;;;;;;;;15.00;99.90;;;;;;5071673;28;19966;-68
2021/07/03 01:50:49;;;;;;;;;;;15.00;99.90;;;;;;5071015;28;19920;-68
2021/07/03 01:53:16;;;;;;;;;;;15.00;99.90;;;;;;5067119;28;19912;-68
2021/07/03 01:55:43;;;;;;;;;;;15.00;99.90;;;;;;5055798;28;20256;-66
2021/07/03 01:58:14;;;;;;;;;;;15.00;99.90;;;;;;5071806;28;19908;-66
2021/07/03 02:00:41;;;;;;;;;;;15.10;99.90;;;;;;5069680;28;19908;-69
2021/07/03 02:03:07;;;;;;;;;;;15.20;99.90;;;;;;5074698;28;20319;-69
2021/07/03 02:05:34;;;;;;;;;;;15.30;99.90;;;;;;5074105;28;20284;-69
2021/07/03 02:08:01;;;;;;;;;;;15.30;99.90;;;;;;5074763;28;20386;-69
2021/07/03 02:10:27;;;;;;;;;;;15.40;99.90;;;;;;5074676;28;19909;-68
2021/07/03 02:12:54;;;;;;;;;;;15.30;99.90;;;;;;5073819;28;20025;-69
2021/07/03 02:15:21;;;;;;;;;;;15.30;99.90;;;;;;5074364;28;19920;-69
2021/07/03 02:17:48;;;;;;;;;;;15.40;99.90;;;;;;5074215;28;19909;-70
2021/07/03 02:20:14;;;;;;;;;;;15.50;99.90;;;;;;5069776;28;19912;-69
2021/07/03 02:22:41;;;;;;;;;;;15.50;99.90;;;;;;5073916;28;19909;-69
2021/07/03 02:25:08;;;;;;;;;;;15.50;99.90;;;;;;5074004;28;19916;-69
2021/07/03 02:27:35;;;;;;;;;;;15.50;99.90;;;;;;5073816;28;19909;-69
2021/07/03 02:30:02;;;;;;;;;;;15.50;99.90;;;;;;5074111;28;19912;-69
2021/07/03 02:32:28;;;;;;;;;;;15.60;99.90;;;;;;5073637;28;19927;-69
2021/07/03 02:34:55;;;;;;;;;;;15.50;99.90;;;;;;5074064;28;19984;-69
2021/07/03 02:37:22;;;;;;;;;;;15.50;99.90;;;;;;5073996;28;20287;-69
2021/07/03 02:39:48;;;;;;;;;;;15.50;99.90;;;;;;5073650;28;19909;-69
2021/07/03 02:42:15;;;;;;;;;;;15.70;99.90;;;;;;5074039;28;19919;-69
2021/07/03 02:44:42;;;;;;;;;;;15.70;99.90;;;;;;5073817;28;20356;-69
2021/07/03 02:47:08;;;;;;;;;;;15.70;99.90;;;;;;5074017;28;19996;-69
2021/07/03 02:49:35;;;;;;;;;;;15.80;99.90;;;;;;5073675;28;19916;-69
2021/07/03 02:52:02;;;;;;;;;;;16.00;99.90;;;;;;5073668;28;19920;-69
2021/07/03 02:54:28;;;;;;;;;;;16.10;99.90;;;;;;5073663;28;19944;-69
2021/07/03 02:56:57;;;;;;;;;;;16.00;99.90;;;;;;5073842;28;19962;-69
2021/07/03 02:59:25;;;;;;;;;;;16.20;99.90;;;;;;5072366;28;20024;-69
2021/07/03 03:01:52;;;;;;;;;;;16.40;99.90;;;;;;5073225;28;19916;-69
2021/07/03 03:04:19;;;;;;;;;;;16.40;99.90;;;;;;5073271;28;19917;-69
2021/07/03 03:06:46;;;;;;;;;;;16.40;99.90;;;;;;5072556;28;20094;-69
2021/07/03 03:09:14;;;;;;;;;;;16.40;99.90;;;;;;5073457;28;19999;-69
2021/07/03 03:11:40;;;;;;;;;;;16.40;99.90;;;;;;5073353;28;19908;-69
2021/07/03 03:14:07;;;;;;;;;;;16.40;99.90;;;;;;5073157;28;19925;-69
2021/07/03 03:16:34;;;;;;;;;;;16.50;99.90;;;;;;5073259;28;20049;-69
2021/07/03 03:19:00;;;;;;;;;;;16.40;99.90;;;;;;5073261;28;20363;-68
2021/07/03 03:21:27;;;;;;;;;;;16.30;99.90;;;;;;5072250;28;20262;-68
2021/07/03 03:23:54;;;;;;;;;;;16.30;99.90;;;;;;5072993;28;19919;-68
2021/07/03 03:26:21;;;;;;;;;;;16.30;99.90;;;;;;5073463;28;19912;-68
2021/07/03 03:28:47;;;;;;;;;;;16.40;99.90;;;;;;5073258;28;19908;-67
2021/07/03 03:31:14;;;;;;;;;;;16.50;99.90;;;;;;5072725;28;19961;-68
2021/07/03 03:33:41;;;;;;;;;;;16.60;99.90;;;;;;5065345;28;20003;-68
2021/07/03 03:36:07;;;;;;;;;;;16.50;99.90;;;;;;5052605;28;19916;-68
2021/07/03 03:38:34;;;;;;;;;;;16.50;99.90;;;;;;5052390;28;19909;-68
2021/07/03 03:41:01;;;;;;;;;;;16.40;99.90;;;;;;5052394;28;20363;-69
2021/07/03 03:43:27;;;;;;;;;;;16.40;99.90;;;;;;5052391;28;19995;-69
2021/07/03 03:45:54;;;;;;;;;;;16.40;99.90;;;;;;5052027;28;19963;-69
2021/07/03 03:48:21;;;;;;;;;;;16.40;99.90;;;;;;5052428;28;20283;-69
2021/07/03 03:50:47;;;;;;;;;;;16.40;99.90;;;;;;5052222;28;19908;-68
2021/07/03 03:53:14;;;;;;;;;;;16.40;99.90;;;;;;5052209;28;20735;-68
2021/07/03 03:55:40;;;;;;;;;;;16.40;99.90;;;;;;5051589;28;19948;-68
2021/07/03 03:58:07;;;;;;;;;;;16.30;99.90;;;;;;5052036;28;19913;-68
2021/07/03 04:00:34;;;;;;;;;;;16.20;99.90;;;;;;5051927;28;19955;-68
2021/07/03 04:03:01;;;;;;;;;;;16.20;99.90;;;;;;5052025;28;20348;-67
2021/07/03 04:05:28;;;;;;;;;;;16.30;99.90;;;;;;5051982;28;20378;-69
2021/07/03 04:07:54;;;;;;;;;;;16.30;99.90;;;;;;5052237;28;19916;-68
2021/07/03 04:10:21;;;;;;;;;;;16.50;99.90;;;;;;5051976;28;19995;-69
2021/07/03 04:12:48;;;;;;;;;;;16.60;99.90;;;;;;5050742;28;19912;-68
2021/07/03 04:15:14;;;;;;;;;;;16.60;99.90;;;;;;5051810;28;20019;-68
2021/07/03 04:17:44;;;;;;;;;;;16.70;99.90;;;;;;5051565;28;19941;-69
2021/07/03 04:20:11;;;;;;;;;;;16.70;99.90;;;;;;5051938;28;19999;-68
2021/07/03 04:22:39;;;;;;;;;;;16.70;99.90;;;;;;5051827;28;20390;-68
2021/07/03 04:25:07;;;;;;;;;;;16.70;99.90;;;;;;5051859;28;19921;-67
2021/07/03 04:27:34;;;;;;;;;;;16.70;99.90;;;;;;5051547;28;19909;-67
2021/07/03 04:30:01;;;;;;;;;;;16.70;99.90;;;;;;5051687;28;20441;-68
2021/07/03 04:32:27;;;;;;;;;;;16.70;99.90;;;;;;5051708;28;19935;-68
2021/07/03 04:34:54;;;;;;;;;;;16.70;99.90;;;;;;5051642;28;19912;-68
2021/07/03 04:37:21;;;;;;;;;;;16.60;99.90;;;;;;5051516;28;19920;-68
2021/07/03 04:39:47;;;;;;;;;;;16.40;99.90;;;;;;5051644;28;19999;-68
2021/07/03 04:42:14;;;;;;;;;;;16.30;99.90;;;;;;5052050;28;20318;-67
2021/07/03 04:44:41;;;;;;;;;;;16.30;99.90;;;;;;5055567;28;20360;-69
2021/07/03 04:47:07;;;;;;;;;;;16.40;99.90;;;;;;5055409;28;19909;-68
2021/07/03 04:49:34;;;;;;;;;;;16.40;99.90;;;;;;5055392;28;19916;-68
2021/07/03 04:52:01;;;;;;;;;;;16.30;99.90;;;;;;5055421;28;20446;-68
2021/07/03 04:54:28;;;;;;;;;;;16.30;99.90;;;;;;5055591;28;20299;-68
2021/07/03 04:57:11;;;;;;;;;;;16.30;99.90;;;;;;5056052;28;19919;-69
2021/07/03 04:59:38;;;;;;;;;;;16.40;99.90;;;;;;5055899;28;19908;-68
2021/07/03 05:02:06;;;;;;;;;;;16.30;99.90;;;;;;5056128;28;20028;-68
2021/07/03 05:04:32;;;;;;;;;;;16.30;99.90;;;;;;5055938;28;19917;-68
2021/07/03 05:06:59;;;;;;;;;;;16.40;99.90;;;;;;5052295;28;20301;-68
2021/07/03 05:09:26;;;;;;;;;;;16.40;99.90;;;;;;5055554;28;19912;-68
2021/07/03 05:11:52;;;;;;;;;;;16.40;99.90;;;;;;5055694;28;19920;-68
2021/07/03 05:14:19;;;;;;;;;;;16.30;99.90;;;;;;5054792;28;19920;-69
2021/07/03 05:16:46;;;;;;;;;;;16.20;99.90;;;;;;5051795;28;20283;-67
2021/07/03 05:19:13;;;;;;;;;;;16.10;99.90;;;;;;5050828;28;19979;-69
2021/07/03 05:21:40;;;;;;;;;;;16.10;99.90;;;;;;5055390;28;20002;-69
2021/07/03 05:24:07;;;;;;;;;;;16.00;99.90;;;;;;5055349;28;19920;-69
2021/07/03 05:26:33;;;;;;;;;;;16.10;99.90;;;;;;5053103;28;19946;-70
2021/07/03 05:29:00;;;;;;;;;;;16.00;99.90;;;;;;5068646;28;19913;-66
2021/07/03 05:31:27;;;;;;;;;;;16.00;99.90;;;;;;5075186;28;19908;-69
2021/07/03 05:33:53;;;;;;;;;;;16.00;99.90;;;;;;5075820;28;20341;-69
2021/07/03 05:36:20;;;;;;;;;;;16.00;99.90;;;;;;5075178;28;20351;-66
2021/07/03 05:38:48;;;;;;;;;;;16.10;99.90;;;;;;5074876;28;19991;-68
2021/07/03 05:41:16;;;;;;;;;;;16.00;99.90;;;;;;5075225;28;19940;-68
2021/07/03 05:43:43;;;;;;;;;;;16.00;99.90;;;;;;5074968;28;19909;-69
2021/07/03 05:46:10;;;;;;;;;;;16.00;99.90;;;;;;5075367;28;19944;-67
2021/07/03 05:48:39;;;;;;;;;;;15.90;99.90;;;;;;5075136;28;19909;-68
2021/07/03 05:51:05;;;;;;;;;;;15.90;99.90;;;;;;5075276;28;19912;-68
2021/07/03 05:53:32;;;;;;;;;;;15.90;99.90;;;;;;5074749;28;19908;-68
2021/07/03 05:55:59;;;;;;;;;;;15.80;99.90;;;;;;5074768;28;19909;-69
2021/07/03 05:58:26;;;;;;;;;;;15.80;99.90;;;;;;5075175;28;19959;-68
2021/07/03 06:00:53;;;;;;;;;;;15.80;99.90;;;;;;5074872;28;19931;-68
2021/07/03 06:03:19;;;;;;;;;;;15.80;99.90;;;;;;5074718;28;19998;-68
2021/07/03 06:05:46;;;;;;;;;;;15.90;99.90;;;;;;5070119;28;19977;-68
2021/07/03 06:08:13;;;;;;;;;;;15.90;99.90;;;;;;5074798;28;19958;-68
2021/07/03 06:10:39;;;;;;;;;;;15.80;99.90;;;;;;5074826;28;20009;-68
2021/07/03 06:13:06;;;;;;;;;;;15.80;99.90;;;;;;5074553;28;19912;-69
2021/07/03 06:15:32;;;;;;;;;;;15.80;99.90;;;;;;5074120;28;19920;-68
2021/07/03 06:17:59;;;;;;;;;;;15.80;99.90;;;;;;5074467;28;20356;-68
2021/07/03 06:20:26;;;;;;;;;;;15.80;99.90;;;;;;5074465;28;20420;-67
2021/07/03 06:22:53;;;;;;;;;;;15.80;99.90;;;;;;5074606;28;19908;-68
2021/07/03 06:25:19;;;;;;;;;;;15.70;99.90;;;;;;5074659;28;19917;-68
2021/07/03 06:27:46;;;;;;;;;;;15.70;99.90;;;;;;5074221;28;19912;-68
2021/07/03 06:30:13;;;;;;;;;;;15.70;99.90;;;;;;5074375;28;19936;-69
2021/07/03 06:32:40;;;;;;;;;;;15.70;99.90;;;;;;5074106;28;19931;-70
2021/07/03 06:35:07;;;;;;;;;;;15.70;99.90;;;;;;5074354;28;20248;-68
2021/07/03 06:37:33;;;;;;;;;;;15.60;99.90;;;;;;5074239;28;19915;-68
2021/07/03 06:40:00;;;;;;;;;;;15.60;99.90;;;;;;5074364;28;19912;-70
2021/07/03 06:42:27;;;;;;;;;;;15.50;99.90;;;;;;5074149;28;20003;-69
2021/07/03 06:44:53;;;;;;;;;;;15.50;99.90;;;;;;5074004;28;19923;-69
2021/07/03 06:47:20;;;;;;;;;;;15.40;99.90;;;;;;5074123;28;19916;-67
2021/07/03 06:49:47;;;;;;;;;;;15.30;99.90;;;;;;5073788;28;19908;-68
2021/07/03 06:52:13;;;;;;;;;;;15.20;99.90;;;;;;5073977;28;19916;-67
2021/07/03 06:54:41;;;;;;;;;;;15.10;99.90;;;;;;5073916;28;19980;-67
2021/07/03 06:57:09;;;;;;;;;;;15.10;99.90;;;;;;5064251;28;20007;-68
2021/07/03 06:59:36;;;;;;;;;;;15.00;99.90;;;;;;5065343;28;19916;-67
2021/07/03 07:02:03;;;;;;;;;;;15.00;99.90;;;;;;5071324;28;19952;-68
2021/07/03 07:04:29;;;;;;;;;;;14.90;99.90;;;;;;5063616;28;19917;-67
2021/07/03 07:06:57;;;;;;;;;;;14.90;99.90;;;;;;5069749;28;19966;-68
2021/07/03 07:09:25;;;;;;;;;;;14.90;99.90;;;;;;5065366;28;19951;-68
2021/07/03 07:11:52;;;;;;;;;;;14.80;99.90;;;;;;5065299;28;19912;-67
2021/07/03 07:14:19;;;;;;;;;;;14.80;99.90;;;;;;5071839;28;19917;-68
2021/07/03 07:16:46;;;;;;;;;;;14.70;99.90;;;;;;5072899;28;19974;-67
2021/07/03 07:19:13;;;;;;;;;;;14.70;99.90;;;;;;5062730;28;20454;-68
2021/07/03 07:21:52;;;;;;;;;;;14.60;99.90;;;;;;5067073;28;20216;-67
2021/07/03 07:24:18;;;;;;;;;;;14.50;99.90;;;;;;5072014;28;20022;-67
2021/07/03 07:26:46;;;;;;;;;;;14.50;99.90;;;;;;5072604;28;20274;-67
2021/07/03 07:29:12;;;;;;;;;;;14.50;99.90;;;;;;5072902;28;20276;-67
2021/07/03 07:31:40;;;;;;;;;;;14.40;99.90;;;;;;5072812;28;19909;-67
2021/07/03 07:34:06;;;;;;;;;;;14.40;99.90;;;;;;5073099;28;19912;-67
2021/07/03 07:36:33;;;;;;;;;;;14.40;99.90;;;;;;5071703;28;19908;-67
2021/07/03 07:39:00;;;;;;;;;;;14.40;99.90;;;;;;5070617;28;19909;-67
2021/07/03 07:41:26;;;;;;;;;;;14.50;99.90;;;;;;5071038;28;19999;-67
2021/07/03 07:43:53;;;;;;;;;;;14.40;99.90;;;;;;5070887;28;19960;-67
2021/07/03 07:46:20;;;;;;;;;;;14.40;99.90;;;;;;5071052;28;19935;-67
2021/07/03 07:48:48;;;;;;;;;;;14.50;99.90;;;;;;5071018;28;19912;-67
2021/07/03 07:51:14;;;;;;;;;;;14.50;99.90;;;;;;5071711;28;19914;-68
2021/07/03 07:53:44;;;;;;;;;;;14.50;99.90;;;;;;5072587;28;19908;-66
2021/07/03 07:56:11;;;;;;;;;;;14.60;99.90;;;;;;5071793;28;20355;-67
2021/07/03 07:58:37;;;;;;;;;;;14.60;99.90;;;;;;5072897;28;19951;-68
2021/07/03 08:01:04;;;;;;;;;;;14.60;99.90;;;;;;5072788;28;19909;-68
2021/07/03 08:03:31;;;;;;;;;;;14.70;99.90;;;;;;5072889;28;20042;-68
2021/07/03 08:05:57;;;;;;;;;;;14.60;99.90;;;;;;5072926;28;20026;-68
2021/07/03 08:08:26;;;;;;;;;;;14.60;99.90;;;;;;5072776;28;19931;-67
2021/07/03 08:10:55;;;;;;;;;;;14.70;99.90;;;;;;5072882;28;19912;-68
2021/07/03 08:13:22;;;;;;;;;;;14.70;99.90;;;;;;5072864;28;19912;-67
2021/07/03 08:15:50;;;;;;;;;;;14.70;99.90;;;;;;5072496;28;19944;-68
2021/07/03 08:18:19;;;;;;;;;;;14.60;99.90;;;;;;5074979;28;19917;-67
2021/07/03 08:20:46;;;;;;;;;;;14.60;99.90;;;;;;5076840;28;20006;-67
2021/07/03 08:23:14;;;;;;;;;;;14.60;99.90;;;;;;5076721;28;19909;-67
2021/07/03 08:25:41;;;;;;;;;;;14.60;99.90;;;;;;5076153;28;20011;-67
2021/07/03 08:28:07;;;;;;;;;;;14.60;99.90;;;;;;5076696;28;19999;-69
2021/07/03 08:30:35;;;;;;;;;;;14.60;99.90;;;;;;5076682;28;19944;-67
2021/07/03 08:33:03;;;;;;;;;;;14.60;99.90;;;;;;5076799;28;20347;-67
2021/07/03 08:35:30;;;;;;;;;;;14.60;99.90;;;;;;5076759;28;19938;-67
2021/07/03 08:37:56;;;;;;;;;;;14.70;99.90;;;;;;5076553;28;20404;-67
2021/07/03 08:40:23;;;;;;;;;;;14.80;99.90;;;;;;5075867;28;19909;-68
2021/07/03 08:42:49;;;;;;;;;;;15.00;99.90;;;;;;5076406;28;20359;-68
2021/07/03 08:45:16;;;;;;;;;;;15.00;99.90;;;;;;5071991;28;19920;-68
2021/07/03 08:47:44;;;;;;;;;;;15.00;99.90;;;;;;5076077;28;20359;-68
2021/07/03 08:50:12;;;;;;;;;;;14.90;99.90;;;;;;5070595;28;20222;-68
2021/07/03 08:52:38;;;;;;;;;;;14.90;99.90;;;;;;5075242;28;19966;-68
2021/07/03 08:55:16;;;;;;;;;;;14.90;99.90;;;;;;5075290;28;19994;-68
2021/07/03 08:57:50;;;;;;;;;;;14.90;99.90;;;;;;5071708;28;19908;-67
2021/07/03 09:00:18;;;;;;;;;;;14.80;99.90;;;;;;5075951;28;19958;-68
2021/07/03 09:02:45;;;;;;;;;;;14.70;99.90;;;;;;5076013;28;19909;-68
2021/07/03 09:05:18;;;;;;;;;;;14.60;99.90;;;;;;5075736;28;19928;-68
2021/07/03 09:07:45;;;;;;;;;;;14.60;99.90;;;;;;5075742;28;19918;-68
2021/07/03 09:10:12;;;;;;;;;;;14.50;99.90;;;;;;5075194;28;19931;-68
2021/07/03 09:12:38;;;;;;;;;;;14.50;99.90;;;;;;5075981;28;19912;-68
2021/07/03 09:15:09;;;;;;;;;;;14.50;99.90;;;;;;5075544;28;19928;-68
2021/07/03 09:17:51;;;;;;;;;;;14.40;99.90;;;;;;5075319;28;19919;-68
2021/07/03 09:20:22;;;;;;;;;;;14.40;99.90;;;;;;5075648;28;20331;-68
2021/07/03 09:22:48;;;;;;;;;;;14.40;99.90;;;;;;5075129;28;20370;-68
2021/07/03 09:25:19;;;;;;;;;;;14.30;99.90;;;;;;5075583;28;19916;-68
2021/07/03 09:27:46;;;;;;;;;;;14.30;99.90;;;;;;5075168;28;19915;-68
2021/07/03 09:30:15;;;;;;;;;;;14.30;99.90;;;;;;5074215;28;19908;-68
2021/07/03 09:32:51;;;;;;;;;;;14.20;99.90;;;;;;5075388;28;19908;-68
2021/07/03 09:35:18;;;;;;;;;;;14.20;99.90;;;;;;5075602;28;19966;-67
2021/07/03 09:37:45;;;;;;;;;;;14.20;99.90;;;;;;5074435;28;19908;-67
2021/07/03 09:40:12;;;;;;;;;;;14.20;99.90;;;;;;5075058;28;19908;-68
2021/07/03 09:42:39;;;;;;;;;;;14.20;99.90;;;;;;5057574;28;19908;-67
2021/07/03 09:45:07;;;;;;;;;;;14.20;99.90;;;;;;5054972;28;20359;-67
2021/07/03 09:47:34;;;;;;;;;;;14.20;99.90;;;;;;5054851;28;19909;-69
2021/07/03 09:50:01;;;;;;;;;;;14.20;99.90;;;;;;5055073;28;19962;-68
2021/07/03 09:52:28;;;;;;;;;;;14.20;99.90;;;;;;5054439;28;19909;-68
2021/07/03 09:54:55;;;;;;;;;;;14.30;99.90;;;;;;5053636;28;19908;-68
2021/07/03 09:57:24;;;;;;;;;;;14.40;99.90;;;;;;5054968;28;20260;-68
2021/07/03 09:59:51;;;;;;;;;;;14.50;99.90;;;;;;5053303;28;19913;-68
2021/07/03 10:02:18;;;;;;;;;;;14.60;99.90;;;;;;5055161;28;19913;-68
2021/07/03 10:04:44;;;;;;;;;;;14.50;99.90;;;;;;5054741;28;19971;-68
2021/07/03 10:07:25;;;;;;;;;;;14.40;99.90;;;;;;5054525;28;19955;-68
2021/07/03 10:09:54;;;;;;;;;;;14.40;99.90;;;;;;5054472;28;20327;-68
2021/07/03 10:12:28;;;;;;;;;;;14.40;99.90;;;;;;5054757;28;19952;-68
2021/07/03 10:14:55;;;;;;;;;;;14.30;99.90;;;;;;5054332;28;20260;-68
2021/07/03 10:17:25;;;;;;;;;;;14.30;99.90;;;;;;5054561;28;19979;-68
2021/07/03 10:19:53;;;;;;;;;;;14.20;99.90;;;;;;5054279;28;19915;-68
2021/07/03 10:22:20;;;;;;;;;;;14.30;99.90;;;;;;5054067;28;19912;-68
2021/07/03 10:24:52;;;;;;;;;;;14.30;99.90;;;;;;5054329;28;19917;-68
2021/07/03 10:27:25;;;;;;;;;;;14.30;99.90;;;;;;5054419;28;19909;-67
2021/07/03 10:29:53;;;;;;;;;;;14.30;99.90;;;;;;5053967;28;20272;-68
2021/07/03 10:32:20;;;;;;;;;;;14.30;99.90;;;;;;5054438;28;19963;-68
2021/07/03 10:34:47;;;;;;;;;;;14.30;99.90;;;;;;5054364;28;19908;-68
2021/07/03 10:37:15;;;;;;;;;;;14.20;99.90;;;;;;5053819;28;19916;-68
2021/07/03 10:39:42;;;;;;;;;;;14.20;99.90;;;;;;5053956;28;20309;-68
2021/07/03 10:42:10;;;;;;;;;;;14.10;99.90;;;;;;5053592;28;19909;-68
2021/07/03 10:44:37;;;;;;;;;;;14.00;99.90;;;;;;5053893;28;19920;-68
2021/07/03 10:47:10;;;;;;;;;;;14.00;99.90;;;;;;5054205;28;19908;-68
2021/07/03 10:49:38;;;;;;;;;;;13.90;99.90;;;;;;5052325;28;20264;-68
2021/07/03 10:52:15;;;;;;;;;;;13.90;99.90;;;;;;5059046;28;19936;-68
2021/07/03 10:54:42;;;;;;;;;;;13.80;99.90;;;;;;5057172;28;19908;-68
2021/07/03 10:57:12;;;;;;;;;;;13.70;99.90;;;;;;5061926;28;20011;-68
2021/07/03 10:59:40;;;;;;;;;;;13.70;99.90;;;;;;5059414;28;19999;-68
2021/07/03 11:02:11;;;;;;;;;;;13.70;99.90;;;;;;5050449;28;20275;-68
2021/07/03 11:04:54;;;;;;;;;;;13.60;99.90;;;;;;5050783;28;19916;-67
2021/07/03 11:07:25;;;;;;;;;;;13.60;99.90;;;;;;5051222;28;19967;-67
2021/07/03 11:09:52;;;;;;;;;;;13.50;99.90;;;;;;5049470;28;19909;-67
2021/07/03 11:12:19;;;;;;;;;;;13.50;99.90;;;;;;5050605;28;19912;-67
2021/07/03 11:14:56;;;;;;;;;;;13.50;99.90;;;;;;5050441;28;19974;-68
2021/07/03 11:17:24;;;;;;;;;;;13.50;99.90;;;;;;5050578;28;20351;-68
2021/07/03 11:19:51;;;;;;;;;;;13.40;99.90;;;;;;5050661;28;20378;-68
2021/07/03 11:22:22;;;;;;;;;;;13.40;99.90;;;;;;5050660;28;19974;-68
2021/07/03 11:24:50;;;;;;;;;;;13.40;99.90;;;;;;5050265;28;19916;-68
2021/07/03 11:27:32;;;;;;;;;;;13.40;99.90;;;;;;5050444;28;19913;-68
2021/07/03 11:30:00;;;;;;;;;;;13.40;99.90;;;;;;5049822;28;20261;-67
2021/07/03 11:32:27;;;;;;;;;;;13.40;99.90;;;;;;5050723;28;19917;-68
2021/07/03 11:34:58;;;;;;;;;;;13.40;99.90;;;;;;5050472;28;19913;-67
2021/07/03 11:37:33;;;;;;;;;;;13.30;99.90;;;;;;5050179;28;19909;-67
2021/07/03 11:40:01;;;;;;;;;;;13.40;99.90;;;;;;5050500;28;19923;-68
2021/07/03 11:42:28;;;;;;;;;;;13.40;99.90;;;;;;5050367;28;19955;-68
2021/07/03 11:44:56;;;;;;;;;;;13.30;99.90;;;;;;5049539;28;19923;-68
2021/07/03 11:47:55;;;;;;;;;;;13.30;99.90;;;;;;5050267;28;19928;-68
2021/07/03 11:50:21;;;;;;;;;;;13.30;99.90;;;;;;5026840;28;19913;-68
2021/07/03 11:52:55;;;;;;;;;;;13.10;99.90;;;;;;5049515;28;20359;-68
2021/07/03 11:55:32;;;;;;;;;;;13.20;99.90;;;;;;5050292;28;20023;-68
2021/07/03 11:57:59;;;;;;;;;;;13.10;99.90;;;;;;5050349;28;19931;-68
2021/07/03 12:00:28;;;;;;;;;;;13.00;99.90;;;;;;5049476;28;19991;-68
2021/07/03 12:02:56;;;;;;;;;;;13.00;99.90;;;;;;5049873;28;19939;-68
2021/07/03 12:05:27;;;;;;;;;;;13.00;99.90;;;;;;5050005;28;19928;-68
2021/07/03 12:08:13;;;;;;;;;;;12.90;99.90;;;;;;5049806;28;20865;-68
2021/07/03 12:10:41;;;;;;;;;;;12.90;99.90;;;;;;5050160;28;19912;-68
2021/07/03 12:13:17;;;;;;;;;;;12.90;99.90;;;;;;5049832;28;19916;-68
2021/07/03 12:15:44;;;;;;;;;;;12.80;99.90;;;;;;5048776;28;19924;-68
2021/07/03 12:18:10;;;;;;;;;;;12.80;99.90;;;;;;5049952;28;20356;-68
2021/07/03 12:20:37;;;;;;;;;;;12.80;99.90;;;;;;5049849;28;20295;-68
2021/07/03 12:23:05;;;;;;;;;;;12.80;99.90;;;;;;5050027;28;19913;-68
2021/07/03 12:25:32;;;;;;;;;;;12.80;99.90;;;;;;5049747;28;19983;-68
2021/07/03 12:28:00;;;;;;;;;;;12.70;99.90;;;;;;5049957;28;19908;-67
2021/07/03 12:30:28;;;;;;;;;;;12.70;99.90;;;;;;5048979;28;20297;-67
2021/07/03 12:33:11;;;;;;;;;;;12.70;99.90;;;;;;5049858;28;20519;-68
2021/07/03 12:36:03;;;;;;;;;;;12.60;99.90;;;;;;5049885;28;19908;-67
2021/07/03 12:38:30;;;;;;;;;;;12.70;99.90;;;;;;5049873;28;19919;-68
2021/07/03 12:40:59;;;;;;;;;;;12.70;99.90;;;;;;5049880;28;19920;-68
2021/07/03 12:43:29;;;;;;;;;;;12.70;99.90;;;;;;5049195;28;19913;-68
2021/07/03 12:46:03;;;;;;;;;;;12.70;99.90;;;;;;5049245;28;19960;-67
2021/07/03 12:48:34;;;;;;;;;;;12.70;99.90;;;;;;5049685;28;19912;-67
2021/07/03 12:51:01;;;;;;;;;;;12.70;99.90;;;;;;5049685;28;20231;-67
2021/07/03 12:53:31;;;;;;;;;;;12.70;99.90;;;;;;5049640;28;19912;-67
2021/07/03 12:55:58;;;;;;;;;;;12.70;99.90;;;;;;5049005;28;19954;-67
2021/07/03 12:58:25;;;;;;;;;;;12.70;99.90;;;;;;5049789;28;20333;-67
2021/07/03 13:00:53;;;;;;;;;;;12.60;99.90;;;;;;5047424;28;19917;-67
2021/07/03 13:03:21;;;;;;;;;;;12.60;99.90;;;;;;5049996;28;19913;-67
2021/07/03 13:05:48;;;;;;;;;;;12.60;99.90;;;;;;5052812;28;20011;-67
2021/07/03 13:08:16;;;;;;;;;;;12.60;99.90;;;;;;5052810;28;19908;-67
2021/07/03 13:10:42;;;;;;;;;;;12.60;99.90;;;;;;5053106;28;19913;-67
2021/07/03 13:13:09;;;;;;;;;;;12.60;99.90;;;;;;5053112;28;19921;-66
2021/07/03 13:15:37;;;;;;;;;;;12.50;99.90;;;;;;5052110;28;20014;-67
2021/07/03 13:18:03;;;;;;;;;;;12.50;99.90;;;;;;5053088;28;20026;-67
2021/07/03 13:20:30;;;;;;;;;;;12.50;99.90;;;;;;5053025;28;19944;-67
2021/07/03 13:22:57;;;;;;;;;;;12.60;99.90;;;;;;5052671;28;20004;-67
2021/07/03 13:25:23;;;;;;;;;;;12.60;99.90;;;;;;5052599;28;20018;-67
2021/07/03 13:27:50;;;;;;;;;;;12.60;99.90;;;;;;5062445;28;19919;-68
2021/07/03 13:30:17;;;;;;;;;;;12.50;99.90;;;;;;5073211;28;19909;-68
2021/07/03 13:32:44;;;;;;;;;;;12.50;99.90;;;;;;5073559;28;19915;-67
2021/07/03 13:35:11;;;;;;;;;;;12.40;99.90;;;;;;5073238;28;19947;-67
2021/07/03 13:37:38;;;;;;;;;;;12.40;99.90;;;;;;5073156;28;19909;-68
2021/07/03 13:40:05;;;;;;;;;;;12.30;99.90;;;;;;5071990;28;19908;-67
2021/07/03 13:42:32;;;;;;;;;;;12.30;99.90;;;;;;5073210;28;19909;-68
2021/07/03 13:44:58;;;;;;;;;;;12.20;99.90;;;;;;5072977;28;19935;-68
2021/07/03 13:47:25;;;;;;;;;;;12.10;99.90;;;;;;5072885;28;20359;-67
2021/07/03 13:49:52;;;;;;;;;;;12.10;99.90;;;;;;5072945;28;19908;-67
2021/07/03 13:52:18;;;;;;;;;;;12.00;99.90;;;;;;5073071;28;20302;-68
2021/07/03 13:54:45;;;;;;;;;;;12.00;99.90;;;;;;5072999;28;20316;-68
2021/07/03 13:57:12;;;;;;;;;;;12.00;99.90;;;;;;5073075;28;20534;-67
2021/07/03 13:59:38;;;;;;;;;;;11.90;99.90;;;;;;5072650;28;19953;-68
2021/07/03 14:02:05;;;;;;;;;;;11.80;99.90;;;;;;5072545;28;19912;-68
2021/07/03 14:04:32;;;;;;;;;;;11.70;99.90;;;;;;5072853;28;19916;-68
2021/07/03 14:06:58;;;;;;;;;;;11.60;99.90;;;;;;5072709;28;19912;-68
2021/07/03 14:09:25;;;;;;;;;;;11.50;99.90;;;;;;5072862;28;19912;-68
2021/07/03 14:11:52;;;;;;;;;;;11.50;99.90;;;;;;5072472;28;19917;-68
2021/07/03 14:14:18;;;;;;;;;;;11.40;99.90;;;;;;5072174;28;19932;-68
2021/07/03 14:16:45;;;;;;;;;;;11.40;99.90;;;;;;5072179;28;20322;-67
2021/07/03 14:19:12;;;;;;;;;;;11.40;99.90;;;;;;5072654;28;19919;-68